Flight Track Log - Related Links

Times and Time Zones

All times are in EDT time to prevent confusion due to time zone crossing. See the RPA3247 flight status page for this flight to view local times or setup timezone preferences in your user account.

Time Position Orientation Groundspeed Altitude Reporting Facility
EDT Latitude Longitude Course Direction KTS MPH feet Rate Location/Type
Fri 05:42:42 PM 42.7503 -73.8311 171° South 154 177 1,400  Level Boston Center
Fri 05:44:00 PM 42.4720 -74.0478 171° South  Level Estimated
Fri 05:44:02 PM 42.7764 -73.9139 293° West 236 272 4,000  Level Boston Center
Fri 05:44:56 PM 42.8342 -73.9661 326° Northwest 275 316 6,400 2,737 Climbing Boston Center
Fri 05:45:00 PM 42.3795 -74.1292 170° South  Level Estimated
Fri 05:45:56 PM 42.8917 -74.0186 326° Northwest 281 323 9,200  Level Boston Center
Fri 05:46:00 PM 42.2870 -74.2104 180° South  Level Estimated
Fri 05:46:56 PM 42.9656 -74.0942 323° Northwest 295 339 11,500  Level Boston Center
Fri 05:47:00 PM 42.1944 -74.2914 169° South  Level Estimated
Fri 05:47:56 PM 43.0314 -74.1586 324° Northwest 314 361 13,800  Level Boston Center
Fri 05:48:00 PM 42.1017 -74.3721 171° South  Level Estimated
Fri 05:48:56 PM 43.1092 -74.2461 321° Northwest 325 374 16,300  Level Boston Center
Fri 05:49:56 PM 43.0969 -74.3594 262° West 314 361 18,100 1,650 Climbing Boston Center
Fri 05:50:56 PM 42.9928 -74.3589 180° South 264 304 19,600 1,500 Climbing Boston Center
Fri 05:51:56 PM 42.8958 -74.2964 155° Southeast 312 359 21,100 1,500 Climbing Boston Center
Fri 05:52:56 PM 42.7969 -74.2311 154° Southeast 362 417 22,600 1,500 Climbing Boston Center
Fri 05:53:56 PM 42.6914 -74.1717 158° South 389 448 24,100 1,400 Climbing Boston Center
Fri 05:54:56 PM 42.5903 -74.1067 155° Southeast 400 460 25,400 1,300 Climbing Boston Center
Fri 05:55:56 PM 42.4831 -74.0392 155° Southeast 412 474 26,700 1,200 Climbing Boston Center
Fri 05:56:56 PM 42.3756 -73.9717 155° Southeast 419 482 27,800 650 Climbing Boston Center
Fri 05:57:56 PM 42.2639 -73.9044 156° South 431 496 28,000 100 Climbing Boston Center
Fri 05:58:56 PM 42.1583 -73.8403 156° South 431 496 28,000  Level Boston Center
Fri 05:59:56 PM 42.0528 -73.7767 156° South 420 483 28,000  Level Boston Center
Fri 06:00:56 PM 41.9494 -73.7131 155° Southeast 415 478 28,000  Level Boston Center
Fri 06:01:56 PM 41.8436 -73.6494 156° South 415 478 28,000  Level Boston Center
Fri 06:03:08 PM 41.7339 -73.6003 162° South 415 478 28,000  Level Boston Center
Fri 06:04:08 PM 41.5942 -73.5947 178° South 415 478 28,000  Level Boston Center
Fri 06:05:08 PM 41.4922 -73.5903 178° South 415 478 28,000  Level Boston Center
Fri 06:06:57 PM 41.2817 -73.6094 184° South 420 483 28,000  Level New York Center
Fri 06:07:58 PM 41.2019 -73.7164 225° Southwest 393 452 28,000  Level New York Center
Fri 06:08:58 PM 41.1344 -73.8344 233° Southwest 393 452 28,000  Level New York Center
Fri 06:09:59 PM 41.0647 -73.9497 231° Southwest 403 464 28,000  Level New York Center
Fri 06:10:59 PM 40.9969 -74.0647 232° Southwest 403 464 28,000  Level New York Center
Fri 06:11:58 PM 40.9164 -74.1897 230° Southwest 408 470 28,000  Level New York Center
Fri 06:12:58 PM 40.8461 -74.3069 232° Southwest 413 475 28,000  Level New York Center
Fri 06:13:59 PM 40.7761 -74.4211 231° Southwest 413 475 28,000  Level New York Center
Fri 06:14:57 PM 40.7058 -74.5350 231° Southwest 413 475 28,000 -458 Level New York Center
Fri 06:15:57 PM 40.6192 -74.6369 222° Southwest 413 475 27,100 -1,587 Descending New York Center
Fri 06:16:58 PM 40.5325 -74.7386 222° Southwest 419 482 24,800 -1,636 Descending New York Center
Fri 06:17:58 PM 40.4497 -74.8400 223° Southwest 419 482 23,800 -1,587 Descending New York Center
Fri 06:18:59 PM 40.3753 -74.9475 228° Southwest 409 471 21,600 -1,916 Descending New York Center
Fri 06:19:57 PM 40.3106 -75.0606 233° Southwest 404 465 20,000 -807 Descending New York Center
Fri 06:20:58 PM 40.2503 -75.1711 234° Southwest 397 457 20,000  Level New York Center
Fri 06:21:56 PM 40.1875 -75.2867 235° Southwest 392 451 20,000  Level New York Center
Fri 06:22:58 PM 40.1208 -75.3936 231° Southwest 392 451 20,000  Level New York Center
Fri 06:23:58 PM 40.0478 -75.5000 228° Southwest 397 457 20,000  Level New York Center
Fri 06:24:59 PM 39.9753 -75.5953 225° Southwest 397 457 20,000  Level New York Center
Fri 06:25:59 PM 39.9042 -75.7014 229° Southwest 392 451 20,000  Level New York Center
Fri 06:26:57 PM 39.8372 -75.8075 231° Southwest 392 451 20,000  Level New York Center
Fri 06:27:57 PM 39.7678 -75.9158 230° Southwest 392 451 20,000 -298 Level New York Center
Fri 06:28:58 PM 39.7047 -76.0192 232° Southwest 387 445 19,400 -1,190 Descending New York Center
Fri 06:29:58 PM 39.6356 -76.1247 230° Southwest 387 445 17,600 -1,878 Descending New York Center
Fri 06:30:53 PM 39.5667 -76.2167 226° Southwest 372 428 15,800 -2,035 Descending Potomac TRACON
Fri 06:31:53 PM 39.5167 -76.3167 237° Southwest 349 402 13,700 -1,850 Descending Potomac TRACON
Fri 06:32:53 PM 39.4500 -76.4167 229° Southwest 331 381 12,100 -895 Descending Potomac TRACON
Fri 06:33:47 PM 39.3833 -76.4833 218° Southwest 326 375 12,000 -53 Descending Potomac TRACON
Fri 06:34:47 PM 39.3167 -76.5500 218° Southwest 327 376 12,000 -595 Level Potomac TRACON
Fri 06:35:48 PM 39.2333 -76.6000 205° Southwest 312 359 10,800 -992 Descending Potomac TRACON
Fri 06:36:48 PM 39.1667 -76.6667 218° Southwest 274 315 10,000 -600 Descending Potomac TRACON
Fri 06:37:48 PM 39.1167 -76.7167 218° Southwest 243 280 9,600 -750 Descending Potomac TRACON
Fri 06:38:48 PM 39.0667 -76.7833 226° Southwest 242 278 8,500 -1,150 Descending Potomac TRACON
Fri 06:39:48 PM 39.0167 -76.8333 218° Southwest 242 278 7,300 -1,140 Descending Potomac TRACON
Fri 06:40:49 PM 38.9667 -76.9000 226° Southwest 243 280 6,200 -645 Descending Potomac TRACON
Fri 06:41:49 PM 38.9667 -76.9833 270° West 252 290 6,000 -550 Descending Potomac TRACON
Fri 06:42:49 PM 39.0000 -77.0500 303° West 220 253 5,100 -526 Descending Potomac TRACON
Fri 06:43:43 PM 39.0333 -77.1000 311° West 218 251 5,000 -316 Descending Potomac TRACON
Fri 06:44:43 PM 39.0833 -77.1667 314° West 216 249 4,500 -750 Descending Potomac TRACON
Fri 06:45:43 PM 39.0500 -77.2167 229° Southwest 197 227 3,500 -744 Descending Potomac TRACON
Fri 06:46:44 PM 39.0167 -77.2000 159° South 171 197 3,000 -248 Descending Potomac TRACON
Fri 06:47:44 PM 38.9833 -77.1667 142° Southeast 168 193 3,000  Level Potomac TRACON

Login

Don't have an account? Register now (free) for customized features, flight alerts, and more!